Time;durP1;ratioP1;P1;durP2;ratioP2;P2;SDS_P1;SDS_P2;PMS_P1;PMS_P2;Temp;Humidity;BMP_temperature;BMP_pressure;BME280_temperature;BME280_humidity;BME280_pressure;Samples;Min_cycle;Max_cycle;Signal;HPM_P1;HPM_P2
2022/06/14 00:00:56;;;;;;;10.00;2.88;;;;;;;7.94;83.93;102235.91;4972865;28;20039;-89
2022/06/14 00:03:52;;;;;;;12.52;3.15;;;;;;;9.12;84.20;102443.50;4974159;28;20105;-89
2022/06/14 00:06:21;;;;;;;7.65;2.60;;;;;;;7.80;83.89;102216.66;4974152;28;20149;-88
2022/06/14 00:08:49;;;;;;;10.30;2.80;;;;;;;7.72;84.25;102212.56;4988767;28;20026;-88
2022/06/14 00:11:32;;;;;;;6.78;2.85;;;;;;;8.51;84.30;102347.50;4973877;28;20041;-88
2022/06/14 00:14:06;;;;;;;9.38;3.00;;;;;;;8.55;84.59;102357.69;4973915;28;20042;-88
2022/06/14 00:16:47;;;;;;;13.05;3.00;;;;;;;8.22;84.46;102300.25;4974067;28;20030;-89
2022/06/14 00:19:28;;;;;;;;;;;;;;;9.09;82.51;102441.88;4974415;28;20106;-88
2022/06/14 00:22:02;;;;;;;9.73;3.45;;;;;;;7.91;84.62;102254.00;4992109;23;19922;-90
2022/06/14 00:24:28;;;;;;;9.90;3.40;;;;;;;7.79;84.73;102225.25;4995407;28;20026;-89
2022/06/14 00:27:08;;;;;;;8.85;3.40;;;;;;;8.72;84.77;102382.06;5012717;28;20049;-89
2022/06/14 00:29:40;;;;;;;10.65;3.58;;;;;;;7.68;84.84;102221.25;5012882;28;20428;-89
2022/06/14 00:32:05;;;;;;;;;;;;;;;9.06;83.79;102443.72;5100879;23;20057;-88
2022/06/14 00:34:31;;;;;;;11.82;3.47;;;;;;;7.63;85.49;102222.25;5012823;28;20012;-89
2022/06/14 00:36:56;;;;;;;10.85;3.33;;;;;;;8.72;86.28;102407.81;5012413;28;20104;-88
2022/06/14 00:39:34;;;;;;;9.25;3.45;;;;;;;7.86;86.64;102265.31;4995195;28;20112;-88
2022/06/14 00:42:05;;;;;;;8.45;2.97;;;;;;;8.87;87.26;102449.41;4994930;28;20057;-90
2022/06/14 00:44:31;;;;;;;7.60;3.13;;;;;;;8.35;87.26;102362.53;5012717;28;20026;-90
2022/06/14 00:47:14;;;;;;;8.13;3.50;;;;;;;7.48;86.72;102233.84;5012838;28;20018;-88
2022/06/14 00:53:30;;;;;;;7.30;3.88;;;;;;;7.21;87.03;102198.59;5012766;28;20049;-89
2022/06/14 00:56:14;;;;;;;10.30;3.50;;;;;;;8.33;87.50;102390.88;5012257;28;20041;-89
2022/06/14 00:59:19;;;;;;;9.20;3.67;;;;;;;8.54;87.41;102424.63;5012321;28;20034;-90
2022/06/14 01:01:56;;;;;;;9.40;4.05;;;;;;;7.01;87.72;102182.00;5012229;28;20065;-89
2022/06/14 01:04:39;;;;;;;11.43;4.25;;;;;;;7.67;87.48;102291.56;4994897;28;20032;-89
2022/06/14 01:07:38;;;;;;;9.68;4.07;;;;;;;7.04;87.29;102196.47;4994750;28;20133;-89
2022/06/14 01:13:35;;;;;;;11.02;4.35;;;;;;;7.01;88.12;102186.28;5012661;28;20041;-89
2022/06/14 01:16:01;;;;;;;9.02;3.38;;;;;;;6.90;88.30;102176.28;4994729;28;20433;-89
2022/06/14 01:18:44;;;;;;;12.07;3.90;;;;;;;8.32;89.16;102429.53;4994528;28;20026;-88
2022/06/14 01:21:25;;;;;;;9.10;3.50;;;;;;;7.10;88.31;102230.56;5012263;28;20113;-89
2022/06/14 01:24:00;;;;;;;8.80;3.78;;;;;;;6.95;88.47;102202.69;5012464;28;20034;-89
2022/06/14 01:26:42;;;;;;;11.32;4.97;;;;;;;7.41;88.76;102281.97;5012202;28;20075;-89
2022/06/14 01:29:07;;;;;;;;;;;;;;;8.28;87.23;102415.91;5012706;28;20029;-89
2022/06/14 01:31:33;;;;;;;7.68;3.30;;;;;;;7.76;89.10;102347.00;5012268;28;20265;-88
2022/06/14 01:34:24;;;;;;;8.75;3.85;;;;;;;7.12;88.56;102238.22;4994492;28;20041;-90
2022/06/14 01:36:50;;;;;;;8.90;4.05;;;;;;;7.50;89.01;102324.59;5012082;28;20058;-89
2022/06/14 01:39:23;;;;;;;8.77;4.10;;;;;;;6.76;89.49;102206.59;4994466;28;20067;-89
2022/06/14 01:42:53;;;;;;;12.23;4.80;;;;;;;7.67;89.47;102336.97;4994446;28;20037;-88
2022/06/14 01:45:48;;;;;;;10.85;4.28;;;;;;;6.60;89.45;102178.75;4951763;28;20032;-88
2022/06/14 01:51:50;;;;;;;10.15;4.00;;;;;;;7.25;88.86;102292.69;4935804;29;20042;-89
2022/06/14 01:52:08;;;;;;;10.73;3.95;;;;;;;7.51;89.75;102340.84;4925748;29;20031;-89
2022/06/14 01:55:32;;;;;;;10.00;4.07;;;;;;;7.27;89.72;102299.47;4935927;29;20067;-90
2022/06/14 01:58:55;;;;;;;9.70;3.95;;;;;;;7.15;89.90;102277.50;4878878;29;20045;-88
2022/06/14 02:01:33;;;;;;;8.50;3.72;;;;;;;7.05;90.25;102264.94;4878739;29;20505;-88
2022/06/14 02:11:06;;;;;;;8.10;3.83;;;;;;;7.83;89.91;102406.84;4879299;29;20517;-88
2022/06/14 02:14:08;;;;;;;9.35;3.50;;;;;;;6.90;90.17;102254.19;4878542;29;20037;-89
2022/06/14 02:20:58;;;;;;;7.80;3.90;;;;;;;6.93;90.16;102254.97;4972171;28;20409;-88
2022/06/14 02:23:52;;;;;;;6.90;3.17;;;;;;;6.69;90.70;102228.19;5014763;28;20479;-89
2022/06/14 02:26:43;;;;;;;10.63;4.05;;;;;;;6.35;90.87;102172.53;5014888;28;20076;-88
2022/06/14 02:29:29;;;;;;;13.30;5.35;;;;;;;6.79;91.42;102256.16;4996700;28;20037;-89
2022/06/14 02:32:24;;;;;;;9.68;3.92;;;;;;;7.44;91.07;102361.56;4997431;23;20050;-88
2022/06/14 02:34:59;;;;;;;8.90;3.83;;;;;;;7.48;91.49;102380.34;4975723;28;20506;-88
2022/06/14 02:37:41;;;;;;;10.85;3.70;;;;;;;7.16;91.62;102328.00;4975676;28;20549;-89
2022/06/14 02:40:18;;;;;;;6.22;3.25;;;;;;;7.27;91.43;102348.28;4989428;28;20098;-88
2022/06/14 02:43:04;;;;;;;11.13;4.20;;;;;;;7.44;91.87;102371.84;4974294;28;20031;-89
2022/06/14 02:45:39;;;;;;;9.15;3.78;;;;;;;7.36;91.79;102360.06;4975550;28;20105;-88
2022/06/14 02:48:16;;;;;;;8.05;3.47;;;;;;;7.11;92.02;102329.84;4974280;28;20411;-88
2022/06/14 02:50:49;;;;;;;7.50;3.45;;;;;;;7.26;92.10;102350.91;4990248;28;20113;-88
2022/06/14 02:53:22;;;;;;;9.55;3.75;;;;;;;7.39;91.85;102370.28;4974393;28;20097;-88
2022/06/14 02:55:53;;;;;;;6.60;3.83;;;;;;;7.01;91.67;102328.38;4990302;28;20027;-87
2022/06/14 02:58:36;;;;;;;7.90;3.55;;;;;;;7.35;92.31;102376.38;4989478;28;20030;-88
2022/06/14 03:01:11;;;;;;;10.02;3.78;;;;;;;6.94;92.46;102318.28;4973834;28;20051;-89
2022/06/14 03:03:45;;;;;;;8.73;3.78;;;;;;;7.06;92.27;102336.81;4990319;28;20117;-88
2022/06/14 03:06:32;;;;;;;8.23;4.20;;;;;;;7.08;92.27;102340.22;4989536;28;20042;-88
2022/06/14 03:09:07;;;;;;;9.10;4.50;;;;;;;7.28;92.34;102378.25;4990478;28;20035;-88
2022/06/14 03:11:49;;;;;;;12.00;4.70;;;;;;;7.28;92.81;102390.28;4973597;28;20082;-88
2022/06/14 03:14:36;;;;;;;8.77;4.53;;;;;;;6.98;92.51;102343.00;4973626;28;20513;-88
2022/06/14 03:17:35;;;;;;;7.97;4.40;;;;;;;7.21;92.19;102384.41;4953108;29;20043;-89
2022/06/14 03:20:45;;;;;;;8.93;4.60;;;;;;;7.19;92.45;102388.75;4953364;29;20391;-88
2022/06/14 03:23:45;;;;;;;7.85;4.15;;;;;;;6.00;92.08;102191.31;4953426;29;20498;-90
2022/06/14 03:26:59;;;;;;;13.20;4.43;;;;;;;5.61;92.69;102134.03;4953047;29;20047;-89
2022/06/14 03:29:49;;;;;;;12.10;5.00;;;;;;;6.31;92.94;102235.91;4952927;29;20035;-88
2022/06/14 03:33:00;;;;;;;10.38;5.00;;;;;;;7.19;92.76;102384.47;4952788;29;20122;-88
2022/06/14 03:35:49;;;;;;;9.68;4.82;;;;;;;7.21;92.42;102383.59;4953159;29;20038;-89
2022/06/14 03:39:11;;;;;;;9.60;4.97;;;;;;;7.16;92.66;102384.50;4952778;29;20407;-90
2022/06/14 03:41:43;;;;;;;10.43;5.22;;;;;;;6.75;93.38;102303.31;4952551;28;20057;-89
2022/06/14 03:44:18;;;;;;;11.15;5.22;;;;;;;7.21;93.19;102381.00;4952783;29;20098;-89
2022/06/14 03:47:18;;;;;;;9.32;5.05;;;;;;;7.21;92.93;102388.72;4952845;29;20035;-89
2022/06/14 03:50:26;;;;;;;12.05;5.50;;;;;;;7.19;93.32;102381.91;4974421;28;20426;-90
2022/06/14 03:53:45;;;;;;;;;;;;;;;;;;;;;
2022/06/14 03:56:43;;;;;;;12.25;5.70;;;;;;;7.25;93.17;102382.63;4974062;28;20034;-90
2022/06/14 03:59:51;;;;;;;8.27;4.50;;;;;;;7.29;93.32;102377.38;4972789;28;20182;-90
2022/06/14 04:02:54;;;;;;;8.10;4.70;;;;;;;7.31;92.90;102378.19;4974077;28;20114;-89
2022/06/14 04:05:28;;;;;;;9.63;4.43;;;;;;;7.32;93.03;102381.59;4973981;28;20026;-90
2022/06/14 04:08:47;;;;;;;8.65;4.32;;;;;;;5.97;92.37;102171.69;4998886;23;20061;-90
2022/06/14 04:14:41;;;;;;;9.02;4.93;;;;;;;7.47;92.85;102396.63;5021299;23;20049;-89
2022/06/14 04:17:40;;;;;;;11.68;5.53;;;;;;;7.56;92.50;102396.38;5013241;28;20128;-89
2022/06/14 04:20:32;;;;;;;12.43;5.53;;;;;;;7.72;92.12;102389.97;5013054;28;20029;-88
2022/06/14 04:23:39;;;;;;;9.75;4.93;;;;;;;7.03;90.59;102200.75;5012132;28;20056;-89
2022/06/14 04:26:30;;;;;;;12.32;5.40;;;;;;;8.86;86.67;102302.63;4995415;28;20191;-90
2022/06/14 04:29:04;;;;;;;9.57;4.78;;;;;;;10.66;81.72;102360.75;5012681;28;20072;-88
2022/06/14 04:38:51;;;;;;;7.32;4.10;;;;;;;14.20;70.80;102383.28;5012992;28;20092;-89
2022/06/14 04:44:34;;;;;;;7.28;3.50;;;;;;;14.75;66.69;102384.66;5002453;23;20556;-90
2022/06/14 04:47:31;;;;;;;9.55;4.53;;;;;;;13.47;66.89;102301.47;4975618;28;20038;-89
2022/06/14 04:50:23;;;;;;;8.82;3.90;;;;;;;12.56;68.92;102314.59;4993111;28;20102;-89
2022/06/14 04:56:56;;;;;;;10.60;4.70;;;;;;;11.24;72.62;102181.72;4993321;28;20121;-89
2022/06/14 04:59:57;;;;;;;12.98;5.10;;;;;;;12.76;70.16;102207.34;4990290;28;20038;-89
2022/06/14 05:02:56;;;;;;;10.82;4.57;;;;;;;15.78;66.99;102385.63;4975250;28;20115;-89
2022/06/14 05:06:06;;;;;;;8.98;4.53;;;;;;;17.73;62.46;102380.91;4975509;28;20026;-89
2022/06/14 05:08:51;;;;;;;13.60;4.63;;;;;;;18.16;58.20;102199.28;4992939;28;20121;-89
2022/06/14 05:11:31;;;;;;;12.35;4.10;;;;;;;20.29;54.39;102374.16;4993022;28;20026;-89
2022/06/14 05:14:22;;;;;;;10.93;4.60;;;;;;;20.12;49.94;102247.94;4975703;28;20470;-88
2022/06/14 05:17:22;;;;;;;;;;;;;;;22.20;55.44;102383.63;4992756;28;20025;-85
2022/06/14 05:27:52;;;;;;;15.23;4.82;;;;;;;23.96;46.99;102381.56;5037775;23;20121;-87
2022/06/14 05:34:45;;;;;;;12.25;5.00;;;;;;;23.48;43.46;102255.97;5016373;28;20044;-88
2022/06/14 05:41:10;;;;;;;16.48;5.18;;;;;;;24.89;41.94;102388.34;4898089;28;20127;-86
2022/06/14 05:50:34;;;;;;;13.32;5.20;;;;;;;24.60;37.69;102290.84;4935988;29;20047;-87
2022/06/14 06:02:41;;;;;;;16.88;6.38;;;;;;;27.73;36.01;102398.09;5447726;23;20127;-87
2022/06/14 06:13:01;;;;;;;9.50;4.82;;;;;;;28.30;32.68;102331.41;4879190;29;20044;-82
2022/06/14 06:15:45;;;;;;;11.35;4.68;;;;;;;28.17;32.38;102353.22;4871096;29;20052;-84
2022/06/14 06:18:32;;;;;;;11.63;4.90;;;;;;;28.65;32.00;102403.59;4879108;29;20052;-82
2022/06/14 06:21:25;;;;;;;12.13;4.93;;;;;;;28.60;32.38;102401.44;4894604;29;20601;-83
2022/06/14 06:24:05;;;;;;;9.10;3.88;;;;;;;28.73;29.00;102395.56;4878875;29;20085;-80
2022/06/14 06:26:36;;;;;;;12.30;4.20;;;;;;;28.75;29.59;102394.38;4879052;29;20033;-83
2022/06/14 06:29:37;;;;;;;9.05;4.07;;;;;;;29.12;30.02;102374.13;4879516;29;20048;-86
2022/06/14 06:32:31;;;;;;;11.15;3.88;;;;;;;29.19;30.47;102393.66;4878746;29;20041;-85
2022/06/14 06:35:11;;;;;;;11.23;3.92;;;;;;;27.88;28.97;102300.78;4878068;29;20037;-85
2022/06/14 06:38:13;;;;;;;9.95;3.63;;;;;;;27.90;28.42;102237.69;4878716;29;20037;-84
2022/06/14 06:43:40;;;;;;;;;;;;;;;30.53;30.45;102397.84;4893874;29;20559;-85
2022/06/14 06:46:12;;;;;;;7.97;2.50;;;;;;;29.13;25.67;102306.59;4919150;29;19927;-86
2022/06/14 06:49:04;;;;;;;8.05;2.45;;;;;;;29.85;28.55;102399.09;4961882;28;20088;-85
2022/06/14 06:51:53;;;;;;;8.60;2.63;;;;;;;28.70;25.40;102269.09;4977706;28;20022;-84
2022/06/14 06:54:49;;;;;;;9.32;2.35;;;;;;;29.11;27.88;102357.34;4980810;28;20034;-87
2022/06/14 06:57:34;;;;;;;8.45;2.58;;;;;;;29.38;25.26;102400.28;4994917;28;20045;-83
2022/06/14 07:00:02;;;;;;;9.18;2.90;;;;;;;28.66;25.56;102278.47;4994712;28;20173;-85
2022/06/14 07:02:53;;;;;;;10.18;3.20;;;;;;;29.00;26.45;102397.66;4994402;28;20394;-85
2022/06/14 07:05:30;;;;;;;8.90;2.60;;;;;;;29.39;26.86;102402.75;4993835;28;20059;-85
2022/06/14 07:08:16;;;;;;;9.10;2.85;;;;;;;28.78;27.69;102249.59;4994751;28;20506;-89
2022/06/14 07:10:56;;;;;;;10.38;2.92;;;;;;;28.71;26.73;102246.88;4994568;28;20034;-84
2022/06/14 07:14:01;;;;;;;11.77;3.45;;;;;;;29.89;26.66;102398.56;4977167;28;20462;-87
2022/06/14 07:17:20;;;;;;;7.28;2.80;;;;;;;29.79;26.16;102378.53;4994138;28;20039;-86
2022/06/14 07:20:26;;;;;;;6.70;3.72;;;;;;;29.38;27.31;102283.19;4977038;28;20165;-86
2022/06/14 07:23:21;;;;;;;6.57;3.33;;;;;;;29.87;26.63;102399.75;4994074;28;20089;-83
2022/06/14 07:26:08;;;;;;;8.73;3.60;;;;;;;30.45;28.37;102400.63;5166705;23;20046;-85
2022/06/14 07:29:09;;;;;;;9.68;3.42;;;;;;;30.77;27.25;102393.97;5013779;28;20034;-85
2022/06/14 07:32:21;;;;;;;6.60;2.80;;;;;;;30.88;27.24;102398.81;4952759;29;20039;-83
2022/06/14 07:35:00;;;;;;;6.72;2.70;;;;;;;30.12;25.94;102323.03;4953251;29;20086;-86
2022/06/14 07:37:41;;;;;;;6.68;3.05;;;;;;;30.06;27.83;102399.16;4953187;29;20086;-88
2022/06/14 07:49:39;;;;;;;7.43;2.50;;;;;;;23.45;34.39;102401.28;5083404;23;19921;-85
2022/06/14 07:52:15;;;;;;;;;;;;;;;22.94;35.95;102397.22;4934141;29;20075;-83
2022/06/14 07:54:59;;;;;;;10.15;3.28;;;;;;;21.58;37.71;102397.75;4933705;29;20330;-85
2022/06/14 08:04:03;;;;;;;7.57;2.60;;;;;;;19.68;39.73;102406.97;4933958;29;20585;-85
2022/06/14 08:06:53;;;;;;;7.25;2.95;;;;;;;19.08;41.54;102406.19;4933501;29;20044;-84
2022/06/14 08:09:26;;;;;;;12.88;3.80;;;;;;;19.00;45.26;102399.84;4917131;29;20538;-87
2022/06/14 08:12:40;;;;;;;7.60;2.75;;;;;;;17.97;46.07;102218.09;4933598;29;20035;-85
2022/06/14 08:15:19;;;;;;;9.10;3.20;;;;;;;18.01;44.17;102209.94;4935357;28;20047;-82
2022/06/14 08:20:40;;;;;;;;;;;;;;;19.51;45.82;102389.88;5019194;23;20053;-85
2022/06/14 08:23:13;;;;;;;10.68;3.22;;;;;;;19.34;46.40;102383.25;4995196;28;20288;-84
2022/06/14 08:25:46;;;;;;;8.32;3.33;;;;;;;18.95;45.20;102326.88;4995226;28;20032;-84
2022/06/14 08:28:15;;;;;;;9.73;3.00;;;;;;;19.07;42.96;102386.16;5012910;28;20034;-83
2022/06/14 08:31:05;;;;;;;8.13;2.92;;;;;;;18.06;45.72;102212.19;5012996;28;20033;-84
2022/06/14 08:37:33;;;;;;;8.85;2.97;;;;;;;18.74;43.39;102383.41;5013118;28;20513;-85
2022/06/14 08:40:46;;;;;;;10.95;3.30;;;;;;;18.61;46.63;102380.84;5012808;28;20026;-83
2022/06/14 08:43:15;;;;;;;7.68;2.33;;;;;;;17.42;46.98;102188.88;5013033;28;20052;-88
2022/06/14 08:46:06;;;;;;;7.78;2.95;;;;;;;18.62;46.55;102377.25;5012575;28;20104;-83
2022/06/14 08:49:09;;;;;;;7.15;2.60;;;;;;;18.04;45.37;102284.69;4916815;29;20527;-81
2022/06/14 08:52:12;;;;;;;8.15;2.78;;;;;;;18.76;48.05;102371.03;4933370;29;20384;-81
2022/06/14 08:55:03;;;;;;;8.32;3.00;;;;;;;18.81;47.42;102380.25;4933343;29;20083;-82
2022/06/14 08:57:54;;;;;;;7.28;2.72;;;;;;;18.58;46.08;102332.19;4919009;29;20127;-81
2022/06/14 09:00:30;;;;;;;6.22;3.10;;;;;;;18.75;46.42;102372.81;4937212;29;20048;-82
2022/06/14 09:03:28;;;;;;;8.80;3.13;;;;;;;18.71;45.55;102378.41;4921058;29;20498;-81
2022/06/14 09:11:46;;;;;;;8.82;3.35;;;;;;;18.81;47.39;102376.78;5015367;28;20037;-82
2022/06/14 09:14:39;;;;;;;7.90;3.28;;;;;;;18.90;46.32;102376.13;4917878;29;20408;-83
2022/06/14 09:17:23;;;;;;;9.38;3.13;;;;;;;19.00;45.63;102364.03;4901667;29;20301;-82
2022/06/14 09:20:10;;;;;;;7.57;3.40;;;;;;;19.03;44.58;102369.03;4917374;29;20035;-83
2022/06/14 09:23:19;;;;;;;9.77;3.92;;;;;;;19.04;45.88;102375.91;4917429;29;20044;-81
2022/06/14 09:26:31;;;;;;;10.35;4.15;;;;;;;18.89;46.63;102369.22;5085313;23;20129;-81
2022/06/14 09:29:24;;;;;;;8.77;3.20;;;;;;;19.01;45.85;102373.53;4996358;28;20431;-81
2022/06/14 09:35:42;;;;;;;9.25;3.08;;;;;;;19.12;47.64;102373.56;4996801;28;20049;-84
2022/06/14 09:38:33;;;;;;;8.40;3.60;;;;;;;19.22;46.11;102365.88;4996198;28;20098;-83
2022/06/14 09:41:28;;;;;;;11.20;3.40;;;;;;;19.36;47.86;102370.06;4996180;28;20034;-82
2022/06/14 09:44:34;;;;;;;8.23;3.17;;;;;;;19.58;46.29;102364.06;4996173;28;20538;-82
2022/06/14 09:47:36;;;;;;;12.10;4.20;;;;;;;19.54;46.05;102354.72;4995224;28;20030;-82
2022/06/14 09:54:21;;;;;;;8.10;3.50;;;;;;;19.70;45.22;102355.25;5146280;23;20069;-82
2022/06/14 10:03:54;;;;;;;7.03;2.67;;;;;;;19.15;45.85;102338.47;5022664;23;20057;-82
2022/06/14 10:06:52;;;;;;;10.00;3.90;;;;;;;18.96;44.42;102311.97;5004336;28;20053;-80
2022/06/14 10:09:55;;;;;;;11.30;3.72;;;;;;;19.20;47.69;102333.72;4994482;28;20027;-81
2022/06/14 10:13:19;;;;;;;9.25;2.83;;;;;;;19.40;45.61;102334.81;4995535;28;20026;-81
2022/06/14 10:15:56;;;;;;;5.32;2.40;;;;;;;19.08;44.34;102284.91;4879083;29;20093;-81
2022/06/14 10:18:32;;;;;;;7.93;2.80;;;;;;;19.39;44.44;102327.91;4879132;29;20041;-81
2022/06/14 10:31:05;;;;;;;10.15;3.22;;;;;;;19.11;45.35;102313.47;5015206;28;20091;-80
2022/06/14 10:34:17;;;;;;;6.45;2.70;;;;;;;19.11;44.33;102313.47;5015035;28;20097;-81
2022/06/14 10:36:42;;;;;;;;;;;;;;;19.23;43.98;102312.53;5015518;28;20029;-81
2022/06/14 10:43:07;;;;;;;7.18;2.80;;;;;;;17.84;43.27;102103.16;5014745;28;20296;-80
2022/06/14 10:45:57;;;;;;;;;;;;;;;19.02;43.65;102299.28;5015512;28;20049;-81
2022/06/14 10:55:54;;;;;;;6.95;3.33;;;;;;;19.47;43.70;102291.50;5157880;23;20516;-82
2022/06/14 10:58:29;;;;;;;8.38;3.42;;;;;;;19.45;43.39;102288.13;4996989;28;20053;-82
2022/06/14 11:01:32;;;;;;;9.43;4.05;;;;;;;19.42;44.71;102283.13;5014343;28;20030;-83
2022/06/14 11:04:21;;;;;;;10.77;3.65;;;;;;;19.42;47.70;102270.03;5014472;28;20076;-82
2022/06/14 11:07:32;;;;;;;9.85;4.10;;;;;;;19.34;44.33;102259.31;5014323;28;20022;-82
2022/06/14 11:10:30;;;;;;;9.55;3.83;;;;;;;19.39;45.87;102283.38;4934639;29;20044;-85
2022/06/14 11:13:23;;;;;;;6.97;3.50;;;;;;;19.20;44.84;102271.69;4934516;29;20110;-85
2022/06/14 11:16:10;;;;;;;9.05;3.63;;;;;;;19.17;46.44;102250.13;4934716;29;20425;-85
2022/06/14 11:18:38;;;;;;;9.85;4.03;;;;;;;19.27;43.30;102273.84;4934744;29;20031;-86
2022/06/14 11:21:25;;;;;;;8.63;3.63;;;;;;;19.24;43.77;102271.47;4930778;29;20046;-82
2022/06/14 11:24:09;;;;;;;9.65;3.80;;;;;;;19.28;44.37;102270.28;4915500;29;20035;-84
2022/06/14 11:26:49;;;;;;;8.48;3.58;;;;;;;19.33;44.05;102262.91;4915385;29;20464;-85
2022/06/14 11:29:38;;;;;;;8.85;3.60;;;;;;;19.30;44.84;102256.13;4915501;29;20039;-83
2022/06/14 11:32:17;;;;;;;8.43;3.30;;;;;;;19.20;44.87;102256.00;4915242;29;20054;-83
2022/06/14 11:34:58;;;;;;;10.00;4.00;;;;;;;18.92;43.12;102215.38;4915522;29;20519;-84
2022/06/14 11:37:40;;;;;;;7.88;3.38;;;;;;;19.27;43.62;102250.25;4914939;29;20066;-86
2022/06/14 11:40:14;;;;;;;7.25;3.33;;;;;;;19.30;42.94;102250.88;4915141;29;20650;-85
2022/06/14 11:43:11;;;;;;;10.85;3.58;;;;;;;19.36;44.02;102249.56;4915101;29;20070;-85
2022/06/14 11:45:49;;;;;;;7.25;3.63;;;;;;;19.34;44.67;102243.59;4915029;29;20531;-85
2022/06/14 11:48:44;;;;;;;8.45;3.33;;;;;;;19.53;46.09;102232.53;4993874;28;20065;-85
2022/06/14 11:51:40;;;;;;;8.90;2.85;;;;;;;19.60;44.69;102231.97;4952950;29;20090;-87
2022/06/14 11:54:34;;;;;;;7.28;2.72;;;;;;;19.46;44.28;102201.56;4952842;29;20039;-85
2022/06/14 11:57:13;;;;;;;9.07;3.42;;;;;;;19.59;43.95;102234.72;4952243;29;20078;-85
2022/06/14 11:59:57;;;;;;;8.63;2.85;;;;;;;19.60;42.54;102228.50;4953123;29;20090;-85
2022/06/14 12:02:42;;;;;;;7.70;3.08;;;;;;;19.69;42.08;102227.78;4936904;29;20035;-85
2022/06/14 12:05:13;;;;;;;8.50;2.65;;;;;;;19.55;44.20;102223.56;4952675;29;20125;-85
2022/06/14 12:07:41;;;;;;;9.15;3.20;;;;;;;19.52;42.78;102220.38;4952604;29;20541;-85
2022/06/14 12:10:49;;;;;;;8.90;3.70;;;;;;;19.27;43.27;102190.88;4952923;29;20492;-85
2022/06/14 12:13:38;;;;;;;7.70;3.28;;;;;;;19.67;42.86;102224.44;4952976;29;20027;-85
2022/06/14 12:16:19;;;;;;;9.50;3.63;;;;;;;19.70;42.58;102232.06;4952895;29;20135;-85
2022/06/14 12:18:56;;;;;;;8.55;3.67;;;;;;;19.39;41.86;102192.53;4952831;29;20514;-85
2022/06/14 12:21:30;;;;;;;7.20;2.90;;;;;;;19.57;42.61;102221.72;4936563;29;20062;-85
2022/06/14 12:24:05;;;;;;;8.50;3.72;;;;;;;19.64;43.97;102228.13;4952454;29;20039;-85
2022/06/14 12:26:42;;;;;;;9.93;3.70;;;;;;;19.43;43.79;102180.84;4952654;28;20027;-85
2022/06/14 12:29:11;;;;;;;7.40;3.00;;;;;;;19.72;42.32;102217.03;4993309;28;20026;-86
2022/06/14 12:31:46;;;;;;;12.32;3.42;;;;;;;19.68;43.31;102205.97;4992512;28;20117;-85
2022/06/14 12:34:29;;;;;;;12.20;4.10;;;;;;;19.79;43.28;102217.41;4993525;28;20081;-86
2022/06/14 12:37:28;;;;;;;9.80;4.00;;;;;;;19.73;42.80;102205.59;4993000;28;20030;-84
2022/06/14 12:39:59;;;;;;;10.13;3.90;;;;;;;19.73;42.96;102210.84;4993146;28;20034;-85
2022/06/14 12:42:32;;;;;;;;;;;;;;;19.79;42.60;102209.53;4993476;28;20367;-83
2022/06/14 12:46:04;;;;;;;9.02;3.90;;;;;;;19.86;43.78;102210.69;5001221;23;20308;-84
2022/06/14 12:48:58;;;;;;;10.77;3.50;;;;;;;20.00;43.53;102197.31;4993328;28;20112;-88
2022/06/14 13:01:37;;;;;;;7.70;4.15;;;;;;;19.66;43.93;102083.88;5012924;28;20129;-83
2022/06/14 13:07:49;;;;;;;11.63;4.63;;;;;;;19.23;42.76;102042.78;4914201;29;20051;-85
2022/06/14 13:10:46;;;;;;;9.25;4.10;;;;;;;20.04;43.04;102190.84;4876622;29;20067;-89
2022/06/14 13:14:07;;;;;;;11.20;4.07;;;;;;;20.12;44.37;102182.34;4860891;29;20055;-87
2022/06/14 13:17:10;;;;;;;10.32;4.25;;;;;;;20.23;42.62;102177.06;4876376;29;20454;-85
2022/06/14 13:20:23;;;;;;;10.20;3.88;;;;;;;19.56;43.15;102068.06;4877456;29;20112;-86
2022/06/14 13:22:59;;;;;;;13.57;4.60;;;;;;;20.20;40.40;102166.84;5137248;23;20115;-87
2022/06/14 13:25:46;;;;;;;7.90;3.47;;;;;;;20.26;43.59;102172.41;4994948;28;20164;-88
2022/06/14 13:28:28;;;;;;;9.32;3.72;;;;;;;20.37;41.72;102160.19;5012477;28;20045;-87
2022/06/14 13:31:21;;;;;;;11.80;3.92;;;;;;;20.45;41.46;102158.63;5012202;28;20076;-88
2022/06/14 13:33:56;;;;;;;8.25;3.88;;;;;;;20.19;41.76;102128.44;5012611;28;20038;-86
2022/06/14 13:36:22;;;;;;;9.52;4.65;;;;;;;20.34;41.66;102156.00;5012565;28;20029;-87
2022/06/14 13:39:20;;;;;;;9.82;4.47;;;;;;;20.26;42.12;102147.97;4994025;28;20117;-88
2022/06/14 13:45:49;;;;;;;7.65;4.15;;;;;;;20.38;42.25;102148.75;4996484;28;20077;-86
2022/06/14 13:48:37;;;;;;;10.00;4.22;;;;;;;20.43;41.79;102138.69;4994886;28;20486;-88
2022/06/14 13:51:52;;;;;;;10.10;4.05;;;;;;;20.18;42.61;102080.41;4996242;28;20034;-85
2022/06/14 13:54:42;;;;;;;10.45;3.78;;;;;;;20.80;43.10;102142.50;4995856;28;20121;-84
2022/06/14 14:00:32;;;;;;;9.43;3.78;;;;;;;20.72;42.28;102120.50;5031520;23;21319;-88
2022/06/14 14:03:16;;;;;;;10.85;4.00;;;;;;;20.79;40.49;102132.13;4997806;28;20401;-88
2022/06/14 14:06:01;;;;;;;10.15;3.58;;;;;;;20.47;41.21;102077.16;5015589;28;20108;-89
2022/06/14 14:08:57;;;;;;;10.48;4.03;;;;;;;20.68;43.88;102072.69;5015352;28;20026;-87
2022/06/14 14:12:00;;;;;;;11.77;4.20;;;;;;;20.99;42.10;102125.16;4916566;29;20139;-89
2022/06/14 14:14:34;;;;;;;13.98;4.00;;;;;;;20.91;41.94;102120.56;4916672;29;20172;-88
2022/06/14 14:17:05;;;;;;;10.80;4.05;;;;;;;20.96;42.08;102114.94;4900760;29;20044;-87
2022/06/14 14:19:49;;;;;;;;;;;;;;;21.04;43.37;102110.69;4916890;29;20075;-87
2022/06/14 14:22:21;;;;;;;12.57;4.82;;;;;;;20.77;41.52;102063.19;4916548;29;19922;-87
2022/06/14 14:24:55;;;;;;;14.23;4.47;;;;;;;21.03;41.48;102108.16;4916345;29;20035;-84
2022/06/14 14:27:50;;;;;;;10.00;4.78;;;;;;;20.97;42.02;102103.47;4939503;23;20160;-87
2022/06/14 14:30:43;;;;;;;10.90;4.00;;;;;;;20.94;42.08;102101.09;5014947;28;20033;-87
2022/06/14 14:33:36;;;;;;;11.57;3.80;;;;;;;19.86;41.92;101935.44;5014807;28;20112;-87
2022/06/14 14:36:28;;;;;;;9.65;4.18;;;;;;;19.51;41.64;101897.28;5014672;28;20038;-88
2022/06/14 14:39:37;;;;;;;12.45;4.35;;;;;;;20.72;42.68;102094.25;5131885;23;20497;-88
2022/06/14 14:42:56;;;;;;;9.32;4.30;;;;;;;20.81;42.94;102096.06;4935223;29;20538;-87
2022/06/14 14:46:03;;;;;;;9.68;4.05;;;;;;;19.63;40.69;101891.03;4878743;29;20053;-88
2022/06/14 14:48:42;;;;;;;10.25;4.05;;;;;;;20.90;42.02;102074.28;4878490;29;20029;-87
2022/06/14 14:51:46;;;;;;;8.88;3.45;;;;;;;20.59;41.31;102028.84;4879787;29;20466;-88
2022/06/14 14:55:03;;;;;;;12.40;4.30;;;;;;;19.79;41.02;101900.22;4878047;29;20040;-89
2022/06/14 14:58:19;;;;;;;9.07;3.40;;;;;;;21.03;42.41;102071.41;4878390;29;20379;-86
2022/06/14 15:07:30;;;;;;;15.75;4.50;;;;;;;21.12;42.30;102067.97;4879949;29;20044;-86
2022/06/14 15:13:03;;;;;;;11.25;3.92;;;;;;;20.63;40.84;101983.00;5012832;28;20529;-83
2022/06/14 15:15:30;;;;;;;8.63;3.65;;;;;;;21.01;40.69;102053.16;4966837;28;20046;-77
2022/06/14 15:20:55;;;;;;;11.10;3.78;;;;;;;20.85;40.61;102048.44;4999433;28;20556;-78
2022/06/14 15:23:38;;;;;;;9.02;3.50;;;;;;;20.92;42.92;102046.91;4996553;28;20064;-78
2022/06/14 15:26:04;;;;;;;12.93;3.47;;;;;;;21.07;42.55;102047.38;5013971;28;20051;-79
2022/06/14 15:28:48;;;;;;;12.18;3.20;;;;;;;21.07;41.26;102041.28;4996310;28;20029;-79
2022/06/14 15:31:25;;;;;;;13.48;3.75;;;;;;;21.06;41.63;102032.59;5013962;28;20026;-76
2022/06/14 15:34:02;;;;;;;9.88;3.20;;;;;;;20.77;41.71;101973.94;4996055;28;20045;-81
2022/06/14 15:36:45;;;;;;;10.15;2.95;;;;;;;21.04;40.43;102026.66;5013594;28;20100;-80
2022/06/14 15:39:45;;;;;;;9.38;3.22;;;;;;;20.93;40.45;101997.84;4996487;28;20551;-80
2022/06/14 15:42:55;;;;;;;8.15;3.20;;;;;;;21.15;41.51;102029.16;5012389;28;20025;-81
2022/06/14 15:52:56;;;;;;;12.65;4.28;;;;;;;20.98;40.85;102013.22;4933868;29;20115;-79
2022/06/14 15:55:25;;;;;;;13.88;3.55;;;;;;;20.94;40.81;102014.44;4933675;29;20043;-80
2022/06/14 16:07:46;;;;;;;10.88;2.90;;;;;;;19.98;40.09;101858.38;5012598;28;20041;-80
2022/06/14 16:10:47;;;;;;;8.07;3.15;;;;;;;20.49;40.49;101951.88;4976838;28;20030;-79
2022/06/14 16:13:45;;;;;;;10.00;3.00;;;;;;;19.95;40.88;101864.69;4994953;28;20061;-80